createdAt,value
2018-10-02T00:02:57.040Z,26.73
2018-10-02T00:07:39.904Z,25.73
2018-10-02T00:12:28.193Z,26.73
2018-10-02T00:17:11.106Z,26.80
2018-10-02T00:21:54.391Z,22.57
2018-10-02T00:26:37.374Z,23.90
2018-10-02T00:31:20.366Z,24.23
2018-10-02T00:36:04.477Z,26.37
2018-10-02T00:40:47.317Z,29.30
2018-10-02T00:45:33.834Z,29.57
2018-10-02T00:50:16.710Z,26.13
2018-10-02T00:54:59.790Z,23.60
2018-10-02T00:59:42.661Z,27.80
2018-10-02T01:04:25.625Z,23.17
2018-10-02T01:09:10.691Z,23.63
2018-10-02T01:13:53.665Z,23.07
2018-10-02T01:18:36.525Z,22.57
2018-10-02T01:23:20.498Z,20.83
2018-10-02T01:28:03.368Z,23.50
2018-10-02T01:32:46.247Z,24.43
2018-10-02T01:37:29.153Z,25.37
2018-10-02T01:42:12.315Z,24.23
2018-10-02T01:46:56.417Z,26.23
2018-10-02T01:51:39.301Z,25.63
2018-10-02T01:56:22.189Z,26.77
2018-10-02T02:01:05.072Z,23.10
2018-10-02T02:05:48.951Z,25.77
2018-10-02T02:10:31.849Z,29.13
2018-10-02T02:15:14.741Z,26.07
2018-10-02T02:19:57.740Z,28.43
2018-10-02T02:24:40.753Z,27.40
2018-10-02T02:29:23.599Z,29.63
2018-10-02T02:34:07.521Z,27.60
2018-10-02T02:38:50.404Z,28.87
2018-10-02T02:43:33.274Z,26.47
2018-10-02T02:48:21.649Z,26.00
2018-10-02T02:53:09.832Z,25.03
2018-10-02T02:57:52.680Z,25.47
2018-10-02T03:02:36.640Z,27.60
2018-10-02T03:07:19.500Z,23.07
2018-10-02T03:12:02.402Z,21.57
2018-10-02T03:16:45.529Z,20.10
2018-10-02T03:21:28.364Z,24.50
2018-10-02T03:26:12.775Z,22.73
2018-10-02T03:30:55.654Z,23.77
2018-10-02T03:35:39.628Z,23.63
2018-10-02T03:40:22.473Z,14.07
2018-10-02T03:45:05.447Z,14.67
2018-10-02T03:49:48.343Z,18.37
2018-10-02T03:54:32.397Z,18.87
2018-10-02T03:59:15.280Z,15.97
2018-10-02T04:03:58.177Z,13.63
2018-10-02T04:08:41.037Z,8.33
2018-10-02T04:13:23.941Z,6.67
2018-10-02T04:18:06.793Z,6.63
2018-10-02T04:22:50.736Z,7.43
2018-10-02T04:27:33.554Z,8.03
2018-10-02T04:32:17.497Z,5.27
2018-10-02T04:37:00.317Z,5.43
2018-10-02T04:41:43.238Z,5.20
2018-10-02T04:46:26.144Z,5.27
2018-10-02T04:51:09.078Z,5.53
2018-10-02T04:55:54.092Z,5.13
2018-10-02T05:00:36.900Z,3.70
2018-10-02T05:05:20.806Z,4.60
2018-10-02T05:10:03.662Z,4.23
2018-10-02T05:14:46.577Z,5.70
2018-10-02T05:19:29.436Z,5.53
2018-10-02T05:24:13.322Z,4.37
2018-10-02T05:28:56.170Z,3.87
2018-10-02T05:33:39.121Z,2.57
2018-10-02T05:38:21.975Z,4.23
2018-10-02T05:43:04.842Z,3.63
2018-10-02T05:47:47.683Z,4.30
2018-10-02T05:52:34.466Z,4.57
2018-10-02T05:57:17.454Z,3.13
2018-10-02T06:02:00.529Z,2.53
2018-10-02T06:06:43.394Z,2.40
2018-10-02T06:11:26.885Z,4.03
2018-10-02T06:16:13.537Z,4.73
2018-10-02T06:20:56.406Z,5.07
2018-10-02T06:25:40.291Z,3.30
2018-10-02T06:30:23.219Z,2.70
2018-10-02T06:35:06.340Z,2.37
2018-10-02T06:39:49.226Z,2.63
2018-10-02T06:44:33.220Z,3.87
2018-10-02T06:49:16.031Z,2.70
2018-10-02T06:53:59.142Z,4.97
2018-10-02T06:58:42.058Z,4.30
2018-10-02T07:03:26.975Z,3.27
2018-10-02T07:08:09.866Z,2.80
2018-10-02T07:12:53.016Z,4.40
2018-10-02T07:17:35.937Z,2.27
2018-10-02T07:22:19.071Z,5.00
2018-10-02T07:27:02.115Z,2.87
2018-10-02T07:31:44.886Z,2.80
2018-10-02T07:36:27.796Z,2.60
2018-10-02T07:41:10.678Z,3.00
2018-10-02T07:45:57.486Z,3.67
2018-10-02T07:50:40.385Z,3.77
2018-10-02T07:55:24.291Z,4.97
2018-10-02T08:00:07.719Z,3.60
2018-10-02T08:04:50.581Z,4.30
2018-10-02T08:09:33.477Z,3.40
2018-10-02T08:14:16.606Z,3.23
2018-10-02T08:18:59.431Z,9.27
2018-10-02T08:23:42.398Z,3.87
2018-10-02T08:28:25.234Z,3.73
2018-10-02T08:33:08.196Z,3.93
2018-10-02T08:37:51.417Z,3.50
2018-10-02T08:42:34.508Z,3.70
2018-10-02T08:47:17.547Z,3.23
2018-10-02T08:52:00.447Z,3.30
2018-10-02T08:56:43.330Z,3.67
2018-10-02T09:01:26.214Z,4.30
2018-10-02T09:06:10.467Z,4.00
2018-10-02T09:10:53.321Z,5.47
2018-10-02T09:15:39.546Z,4.30
2018-10-02T09:20:22.750Z,5.10
2018-10-02T09:25:05.938Z,7.47
2018-10-02T09:29:54.099Z,4.60
2018-10-02T09:34:45.945Z,5.97
2018-10-02T09:39:34.374Z,6.60
2018-10-02T09:44:19.250Z,7.47
2018-10-02T09:49:02.305Z,9.53
2018-10-02T09:53:45.310Z,11.03
2018-10-02T09:58:28.212Z,12.33
2018-10-02T10:03:11.362Z,11.80
2018-10-02T10:07:54.230Z,14.23
2018-10-02T10:12:40.649Z,19.57
2018-10-02T10:17:23.663Z,14.50
2018-10-02T10:22:06.675Z,15.80
2018-10-02T10:26:49.551Z,14.70
2018-10-02T10:31:32.435Z,14.03
2018-10-02T10:36:15.309Z,16.63
2018-10-02T10:40:58.254Z,20.03
2018-10-02T10:45:42.152Z,18.27
2018-10-02T10:50:25.031Z,17.53
2018-10-02T10:55:28.794Z,13.33
2018-10-02T11:00:11.694Z,17.83
2018-10-02T11:04:54.761Z,14.43
2018-10-02T11:09:37.676Z,16.27
2018-10-02T11:14:20.684Z,15.47
2018-10-02T11:19:03.641Z,13.30
2018-10-02T11:23:46.751Z,12.83
2018-10-02T11:28:29.590Z,11.93
2018-10-02T11:34:42.842Z,13.10
2018-10-02T11:39:25.694Z,11.70
2018-10-02T11:44:08.597Z,10.57
2018-10-02T11:48:51.490Z,12.57
2018-10-02T11:53:36.418Z,12.63
2018-10-02T11:58:19.297Z,26.20
2018-10-02T12:03:03.235Z,20.03
2018-10-02T12:07:46.102Z,15.17
2018-10-02T12:12:29.946Z,12.07
2018-10-02T12:17:12.842Z,14.63
2018-10-02T12:21:55.751Z,11.13
2018-10-02T12:26:38.672Z,11.37
2018-10-02T12:31:21.827Z,12.73
2018-10-02T12:37:34.677Z,8.20
2018-10-02T12:42:17.674Z,12.60
2018-10-02T12:47:00.625Z,15.43
2018-10-02T12:51:44.458Z,16.70
2018-10-02T12:56:27.305Z,15.93
2018-10-02T13:01:10.206Z,15.33
2018-10-02T13:05:53.043Z,16.47
2018-10-02T13:10:35.897Z,15.93
2018-10-02T13:15:18.878Z,17.40
2018-10-02T13:20:02.063Z,13.20
2018-10-02T13:24:45.121Z,17.87
2018-10-02T13:29:28.538Z,17.10
2018-10-02T13:34:11.798Z,18.17
2018-10-02T13:38:54.651Z,20.73
2018-10-02T13:43:37.670Z,16.17
2018-10-02T13:53:29.430Z,21.80
2018-10-02T13:58:12.266Z,17.30
2018-10-02T14:02:55.422Z,22.77
2018-10-02T14:07:38.390Z,16.73
2018-10-02T14:12:21.358Z,12.60
2018-10-02T14:17:04.230Z,27.50
2018-10-02T14:21:47.091Z,15.97
2018-10-02T14:26:29.986Z,15.10
2018-10-02T14:31:14.927Z,16.80
2018-10-02T14:35:58.193Z,20.30
2018-10-02T14:40:41.026Z,13.73
2018-10-02T14:45:23.860Z,14.13
2018-10-02T14:50:06.901Z,12.23
2018-10-02T14:54:49.890Z,14.53
2018-10-02T14:59:32.764Z,15.53
2018-10-02T15:04:16.666Z,16.67
2018-10-02T15:08:59.548Z,15.40
2018-10-02T15:13:42.411Z,10.83
2018-10-02T15:18:26.252Z,11.97
2018-10-02T15:23:11.616Z,11.40
2018-10-02T15:27:54.478Z,13.23
2018-10-02T15:32:37.544Z,15.90
2018-10-02T15:37:20.476Z,10.57
2018-10-02T15:42:03.608Z,12.23
2018-10-02T15:46:46.503Z,12.23
2018-10-02T15:51:30.610Z,13.77
2018-10-02T15:56:13.499Z,17.43
2018-10-02T16:00:57.388Z,12.43
2018-10-02T16:05:40.282Z,13.77
2018-10-02T16:10:23.142Z,13.07
2018-10-02T16:15:06.103Z,36.83
2018-10-02T16:19:48.970Z,17.97
2018-10-02T16:24:32.146Z,21.80
2018-10-02T16:29:15.045Z,21.57
2018-10-02T16:33:58.132Z,20.20
2018-10-02T16:38:41.021Z,17.63
2018-10-02T16:43:25.106Z,17.23
2018-10-02T16:48:08.011Z,19.17
2018-10-02T16:52:50.897Z,19.33
2018-10-02T16:57:33.753Z,17.37
2018-10-02T17:02:17.052Z,18.83
2018-10-02T17:06:59.949Z,19.77
2018-10-02T17:11:43.992Z,20.20
2018-10-02T17:16:26.905Z,19.53
2018-10-02T17:21:10.008Z,18.73
2018-10-02T17:25:52.907Z,20.87
2018-10-02T17:30:38.385Z,18.07
2018-10-02T17:35:21.283Z,22.20
2018-10-02T17:40:04.317Z,20.60
2018-10-02T17:44:47.225Z,21.70
2018-10-02T17:49:30.124Z,19.80
2018-10-02T17:54:13.305Z,20.67
2018-10-02T17:58:56.605Z,18.93
2018-10-02T18:03:40.310Z,27.90
2018-10-02T18:08:23.279Z,42.73
2018-10-02T18:13:07.455Z,39.17
2018-10-02T18:17:50.437Z,22.13
2018-10-02T18:22:33.381Z,20.97
2018-10-02T18:27:16.356Z,21.70
2018-10-02T18:31:59.396Z,21.07
2018-10-02T18:36:42.436Z,21.87
2018-10-02T18:41:26.868Z,19.13
2018-10-02T18:46:09.825Z,22.63
2018-10-02T18:59:52.792Z,19.97
2018-10-02T19:04:35.758Z,20.37
2018-10-02T19:09:19.072Z,19.83
2018-10-02T19:14:02.018Z,16.97
2018-10-02T19:18:44.956Z,18.63
2018-10-02T19:23:29.089Z,22.17
2018-10-02T19:28:12.007Z,16.93
2018-10-02T19:32:56.151Z,17.97
2018-10-02T19:37:44.575Z,21.23
2018-10-02T19:42:28.555Z,20.07
2018-10-02T19:47:11.595Z,15.80
2018-10-02T19:52:11.040Z,15.03
2018-10-02T19:56:54.511Z,16.17
2018-10-02T20:01:38.474Z,16.80
2018-10-02T20:06:21.325Z,15.67
2018-10-02T20:11:04.303Z,14.80
2018-10-02T20:15:47.182Z,18.47
2018-10-02T20:20:32.459Z,13.90
2018-10-02T20:25:15.353Z,16.03
2018-10-02T20:30:00.387Z,15.97
2018-10-02T20:34:43.229Z,14.97
2018-10-02T20:39:26.098Z,17.63
2018-10-02T20:44:09.477Z,14.53
2018-10-02T20:48:52.370Z,11.23
2018-10-02T20:53:35.382Z,10.50
2018-10-02T20:58:18.247Z,15.20
2018-10-02T21:03:01.387Z,12.47
2018-10-02T21:07:44.398Z,13.37
2018-10-02T21:12:27.391Z,10.03
2018-10-02T21:17:10.255Z,9.83
2018-10-02T21:21:55.243Z,11.70
2018-10-02T21:26:38.094Z,9.97
2018-10-02T21:31:21.947Z,10.10
2018-10-02T21:36:04.850Z,9.13
2018-10-02T21:40:48.753Z,9.63
2018-10-02T21:45:31.664Z,8.53
2018-10-02T21:50:14.864Z,9.17
2018-10-02T21:54:57.874Z,9.77
2018-10-02T21:59:40.768Z,9.70
2018-10-02T22:04:24.070Z,9.90
2018-10-02T22:09:08.537Z,10.80
2018-10-02T22:13:52.905Z,11.43
2018-10-02T22:18:35.737Z,12.70
2018-10-02T22:23:19.798Z,12.13
2018-10-02T22:28:02.698Z,14.50
2018-10-02T22:32:46.577Z,13.07
2018-10-02T22:37:29.436Z,15.97
2018-10-02T22:42:16.091Z,11.97
2018-10-02T22:46:59.476Z,13.30
2018-10-02T22:51:43.518Z,12.73
2018-10-02T22:56:27.303Z,14.80
2018-10-02T23:01:12.378Z,13.03
2018-10-02T23:05:55.689Z,13.77
2018-10-02T23:10:40.709Z,16.73
2018-10-02T23:15:23.956Z,13.83
2018-10-02T23:20:08.070Z,18.97
2018-10-02T23:24:51.002Z,16.07
2018-10-02T23:29:35.416Z,22.87
2018-10-02T23:34:18.446Z,26.50
2018-10-02T23:39:01.402Z,35.30
2018-10-02T23:43:46.817Z,22.83
2018-10-02T23:48:30.018Z,33.90
2018-10-02T23:53:13.058Z,27.70
2018-10-02T23:57:55.910Z,25.37
